Главная страница
METAR-TAF:

METAR-TAF

Аэропорты :

Puerto Carreño, Колумбия

широта: 06-10N, долгота: 067-30W, высота над уровнем моря: 55 м

Текущие метеонаблюдения

Эта сводка был подготовлена 1 час и 8 минут назад, в 20:00 UTC
Ветер 4 Узел от южный-юго-западный
Температура 30°C
Влажность 70%
Давление 1011 hPa
Видимость 10 км и более
небольшая облачность на высоте 1700 фута

METAR: SKPC 122000Z 21004KT 9999 FEW017 30/24 Q1011

Время: 16:08 (21:08 UTC)


TAF: отсутствует

Метеонаблюдения и прогнозы для более 4000 аэропортов (сводки METAR и TAF).

Имеющиеся станции представлены на карте желтыми и красными точками.

Чтобы увидеть название станции, наведите на нее мышь.

Затем щелкните, чтобы увидеть метеонаблюдения и метеопрогнозы.

Управление картой: чтобы увеличить масштаб, щелкните зеленые кнопки с черным крестиком; чтобы уменьшить масштаб, щелкните зеленую кнопку с тире; для просмотра соседних карт щелкайте зеленые стрелки.


METAR-TAF: